sensor_id;sensor_type;location;lat;lon;timestamp;P1;durP1;ratioP1;P2;durP2;ratioP2
13588;SDS011;6865;52.552;13.434;2023-03-01T00:01:38;24.07;;;14.60;;
13588;SDS011;6865;52.552;13.434;2023-03-01T00:04:06;25.57;;;15.63;;
13588;SDS011;6865;52.552;13.434;2023-03-01T00:06:32;25.87;;;15.77;;
13588;SDS011;6865;52.552;13.434;2023-03-01T00:08:59;25.17;;;16.03;;
13588;SDS011;6865;52.552;13.434;2023-03-01T00:11:26;24.87;;;15.53;;
13588;SDS011;6865;52.552;13.434;2023-03-01T00:13:55;25.13;;;15.93;;
13588;SDS011;6865;52.552;13.434;2023-03-01T00:16:34;30.50;;;17.70;;
13588;SDS011;6865;52.552;13.434;2023-03-01T00:19:08;24.97;;;16.50;;
13588;SDS011;6865;52.552;13.434;2023-03-01T00:21:38;27.87;;;17.03;;
13588;SDS011;6865;52.552;13.434;2023-03-01T00:24:05;25.30;;;15.53;;
13588;SDS011;6865;52.552;13.434;2023-03-01T00:26:32;27.47;;;15.90;;
13588;SDS011;6865;52.552;13.434;2023-03-01T00:28:58;26.73;;;16.80;;
13588;SDS011;6865;52.552;13.434;2023-03-01T00:31:26;28.13;;;15.17;;
13588;SDS011;6865;52.552;13.434;2023-03-01T00:33:56;24.20;;;15.70;;
13588;SDS011;6865;52.552;13.434;2023-03-01T00:36:24;24.23;;;15.47;;
13588;SDS011;6865;52.552;13.434;2023-03-01T00:38:53;27.17;;;15.80;;
13588;SDS011;6865;52.552;13.434;2023-03-01T00:41:20;24.33;;;15.40;;
13588;SDS011;6865;52.552;13.434;2023-03-01T00:43:49;25.30;;;15.67;;
13588;SDS011;6865;52.552;13.434;2023-03-01T00:46:17;29.83;;;17.33;;
13588;SDS011;6865;52.552;13.434;2023-03-01T00:48:45;32.70;;;19.50;;
13588;SDS011;6865;52.552;13.434;2023-03-01T00:51:12;31.33;;;18.33;;
13588;SDS011;6865;52.552;13.434;2023-03-01T00:53:45;29.07;;;16.73;;
13588;SDS011;6865;52.552;13.434;2023-03-01T00:56:12;24.83;;;15.30;;
13588;SDS011;6865;52.552;13.434;2023-03-01T00:58:40;25.23;;;14.80;;
13588;SDS011;6865;52.552;13.434;2023-03-01T01:01:11;20.23;;;12.87;;
13588;SDS011;6865;52.552;13.434;2023-03-01T01:03:46;21.77;;;13.60;;
13588;SDS011;6865;52.552;13.434;2023-03-01T01:06:16;20.83;;;13.90;;
13588;SDS011;6865;52.552;13.434;2023-03-01T01:08:47;21.83;;;14.13;;
13588;SDS011;6865;52.552;13.434;2023-03-01T01:11:15;23.80;;;15.33;;
13588;SDS011;6865;52.552;13.434;2023-03-01T01:13:43;24.10;;;15.33;;
13588;SDS011;6865;52.552;13.434;2023-03-01T01:16:11;23.53;;;14.80;;
13588;SDS011;6865;52.552;13.434;2023-03-01T01:18:38;23.63;;;14.80;;
13588;SDS011;6865;52.552;13.434;2023-03-01T01:21:06;24.23;;;16.00;;
13588;SDS011;6865;52.552;13.434;2023-03-01T01:23:36;24.87;;;15.50;;
13588;SDS011;6865;52.552;13.434;2023-03-01T01:26:10;26.43;;;15.57;;
13588;SDS011;6865;52.552;13.434;2023-03-01T01:28:43;26.40;;;15.80;;
13588;SDS011;6865;52.552;13.434;2023-03-01T01:31:10;26.77;;;16.40;;
13588;SDS011;6865;52.552;13.434;2023-03-01T01:33:40;25.97;;;16.80;;
13588;SDS011;6865;52.552;13.434;2023-03-01T01:36:07;26.80;;;16.10;;
13588;SDS011;6865;52.552;13.434;2023-03-01T01:38:35;26.73;;;17.33;;
13588;SDS011;6865;52.552;13.434;2023-03-01T01:41:03;29.73;;;16.80;;
13588;SDS011;6865;52.552;13.434;2023-03-01T01:43:33;26.57;;;16.33;;
13588;SDS011;6865;52.552;13.434;2023-03-01T01:46:03;26.63;;;15.60;;
13588;SDS011;6865;52.552;13.434;2023-03-01T01:48:34;24.27;;;14.83;;
13588;SDS011;6865;52.552;13.434;2023-03-01T01:51:10;20.93;;;13.30;;
13588;SDS011;6865;52.552;13.434;2023-03-01T01:53:52;21.60;;;13.13;;
13588;SDS011;6865;52.552;13.434;2023-03-01T01:56:22;24.80;;;14.13;;
13588;SDS011;6865;52.552;13.434;2023-03-01T01:58:50;26.60;;;14.67;;
13588;SDS011;6865;52.552;13.434;2023-03-01T02:01:17;24.17;;;14.33;;
13588;SDS011;6865;52.552;13.434;2023-03-01T02:03:44;23.30;;;13.90;;
13588;SDS011;6865;52.552;13.434;2023-03-01T02:06:17;23.03;;;13.97;;
13588;SDS011;6865;52.552;13.434;2023-03-01T02:08:45;19.17;;;13.13;;
13588;SDS011;6865;52.552;13.434;2023-03-01T02:11:14;20.90;;;13.03;;
13588;SDS011;6865;52.552;13.434;2023-03-01T02:13:41;18.17;;;11.77;;
13588;SDS011;6865;52.552;13.434;2023-03-01T02:16:09;18.93;;;11.70;;
13588;SDS011;6865;52.552;13.434;2023-03-01T02:18:39;13.77;;;9.13;;
13588;SDS011;6865;52.552;13.434;2023-03-01T02:23:43;19.40;;;11.57;;
13588;SDS011;6865;52.552;13.434;2023-03-01T02:26:18;17.43;;;12.03;;
13588;SDS011;6865;52.552;13.434;2023-03-01T02:29:06;19.47;;;11.77;;
13588;SDS011;6865;52.552;13.434;2023-03-01T02:31:33;20.90;;;12.07;;
13588;SDS011;6865;52.552;13.434;2023-03-01T02:34:11;19.70;;;11.57;;
13588;SDS011;6865;52.552;13.434;2023-03-01T02:36:41;19.30;;;11.73;;
13588;SDS011;6865;52.552;13.434;2023-03-01T02:39:17;15.60;;;10.27;;
13588;SDS011;6865;52.552;13.434;2023-03-01T02:41:50;15.83;;;10.17;;
13588;SDS011;6865;52.552;13.434;2023-03-01T02:44:20;17.17;;;11.50;;
13588;SDS011;6865;52.552;13.434;2023-03-01T02:46:48;18.20;;;11.63;;
13588;SDS011;6865;52.552;13.434;2023-03-01T02:49:30;17.27;;;11.80;;
13588;SDS011;6865;52.552;13.434;2023-03-01T02:52:01;16.70;;;11.50;;
13588;SDS011;6865;52.552;13.434;2023-03-01T02:54:40;16.67;;;10.53;;
13588;SDS011;6865;52.552;13.434;2023-03-01T02:57:12;20.10;;;11.77;;
13588;SDS011;6865;52.552;13.434;2023-03-01T02:59:39;17.07;;;11.00;;
13588;SDS011;6865;52.552;13.434;2023-03-01T03:02:07;16.73;;;10.83;;
13588;SDS011;6865;52.552;13.434;2023-03-01T03:04:46;18.13;;;11.13;;
13588;SDS011;6865;52.552;13.434;2023-03-01T03:07:13;20.63;;;11.50;;
13588;SDS011;6865;52.552;13.434;2023-03-01T03:09:40;21.00;;;11.07;;
13588;SDS011;6865;52.552;13.434;2023-03-01T03:12:06;15.60;;;11.07;;
13588;SDS011;6865;52.552;13.434;2023-03-01T03:14:33;17.60;;;11.17;;
13588;SDS011;6865;52.552;13.434;2023-03-01T03:17:01;17.53;;;10.90;;
13588;SDS011;6865;52.552;13.434;2023-03-01T03:19:32;18.60;;;11.63;;
13588;SDS011;6865;52.552;13.434;2023-03-01T03:21:59;20.40;;;12.43;;
13588;SDS011;6865;52.552;13.434;2023-03-01T03:24:25;17.97;;;11.63;;
13588;SDS011;6865;52.552;13.434;2023-03-01T03:26:53;20.00;;;12.23;;
13588;SDS011;6865;52.552;13.434;2023-03-01T03:29:19;21.37;;;12.37;;
13588;SDS011;6865;52.552;13.434;2023-03-01T03:31:46;20.37;;;12.37;;
13588;SDS011;6865;52.552;13.434;2023-03-01T03:34:13;19.73;;;12.17;;
13588;SDS011;6865;52.552;13.434;2023-03-01T03:36:44;18.07;;;11.50;;
13588;SDS011;6865;52.552;13.434;2023-03-01T03:39:10;19.70;;;11.60;;
13588;SDS011;6865;52.552;13.434;2023-03-01T03:41:37;17.77;;;12.03;;
13588;SDS011;6865;52.552;13.434;2023-03-01T03:44:03;20.50;;;13.23;;
13588;SDS011;6865;52.552;13.434;2023-03-01T03:46:30;22.73;;;13.73;;
13588;SDS011;6865;52.552;13.434;2023-03-01T03:48:57;23.93;;;13.97;;
13588;SDS011;6865;52.552;13.434;2023-03-01T03:51:24;24.43;;;13.63;;
13588;SDS011;6865;52.552;13.434;2023-03-01T03:53:51;21.67;;;13.93;;
13588;SDS011;6865;52.552;13.434;2023-03-01T03:56:17;24.97;;;14.17;;
13588;SDS011;6865;52.552;13.434;2023-03-01T03:58:44;23.00;;;13.50;;
13588;SDS011;6865;52.552;13.434;2023-03-01T04:01:10;21.83;;;13.70;;
13588;SDS011;6865;52.552;13.434;2023-03-01T04:03:37;23.53;;;13.23;;
13588;SDS011;6865;52.552;13.434;2023-03-01T04:06:04;20.80;;;13.87;;
13588;SDS011;6865;52.552;13.434;2023-03-01T04:08:32;21.33;;;13.33;;
13588;SDS011;6865;52.552;13.434;2023-03-01T04:11:02;22.50;;;13.13;;
13588;SDS011;6865;52.552;13.434;2023-03-01T04:13:50;21.23;;;13.03;;
13588;SDS011;6865;52.552;13.434;2023-03-01T04:16:18;21.70;;;13.10;;
13588;SDS011;6865;52.552;13.434;2023-03-01T04:18:45;20.23;;;13.03;;
13588;SDS011;6865;52.552;13.434;2023-03-01T04:21:12;24.87;;;13.60;;
13588;SDS011;6865;52.552;13.434;2023-03-01T04:23:39;20.00;;;13.10;;
13588;SDS011;6865;52.552;13.434;2023-03-01T04:26:07;20.30;;;12.57;;
13588;SDS011;6865;52.552;13.434;2023-03-01T04:28:35;17.20;;;11.77;;
13588;SDS011;6865;52.552;13.434;2023-03-01T04:31:05;21.87;;;12.03;;
13588;SDS011;6865;52.552;13.434;2023-03-01T04:33:40;18.03;;;12.13;;
13588;SDS011;6865;52.552;13.434;2023-03-01T04:36:08;20.73;;;12.57;;
13588;SDS011;6865;52.552;13.434;2023-03-01T04:38:37;20.80;;;12.80;;
13588;SDS011;6865;52.552;13.434;2023-03-01T04:41:05;20.43;;;12.43;;
13588;SDS011;6865;52.552;13.434;2023-03-01T04:43:34;17.90;;;12.20;;
13588;SDS011;6865;52.552;13.434;2023-03-01T04:46:04;20.57;;;12.80;;
13588;SDS011;6865;52.552;13.434;2023-03-01T04:48:35;20.80;;;12.07;;
13588;SDS011;6865;52.552;13.434;2023-03-01T04:51:03;19.63;;;11.57;;
13588;SDS011;6865;52.552;13.434;2023-03-01T04:53:32;18.33;;;11.20;;
13588;SDS011;6865;52.552;13.434;2023-03-01T04:55:59;20.23;;;12.13;;
13588;SDS011;6865;52.552;13.434;2023-03-01T04:58:26;18.10;;;11.93;;
13588;SDS011;6865;52.552;13.434;2023-03-01T05:00:53;21.20;;;12.70;;
13588;SDS011;6865;52.552;13.434;2023-03-01T05:03:21;22.13;;;12.77;;
13588;SDS011;6865;52.552;13.434;2023-03-01T05:05:49;20.57;;;12.53;;
13588;SDS011;6865;52.552;13.434;2023-03-01T05:08:17;21.53;;;12.67;;
13588;SDS011;6865;52.552;13.434;2023-03-01T05:10:45;23.80;;;13.00;;
13588;SDS011;6865;52.552;13.434;2023-03-01T05:13:14;23.87;;;12.57;;
13588;SDS011;6865;52.552;13.434;2023-03-01T05:15:56;21.43;;;12.87;;
13588;SDS011;6865;52.552;13.434;2023-03-01T05:18:25;20.37;;;11.93;;
13588;SDS011;6865;52.552;13.434;2023-03-01T05:20:54;19.47;;;12.03;;
13588;SDS011;6865;52.552;13.434;2023-03-01T05:23:22;19.80;;;12.40;;
13588;SDS011;6865;52.552;13.434;2023-03-01T05:25:49;21.00;;;13.00;;
13588;SDS011;6865;52.552;13.434;2023-03-01T05:28:19;22.77;;;12.93;;
13588;SDS011;6865;52.552;13.434;2023-03-01T05:30:46;20.33;;;12.63;;
13588;SDS011;6865;52.552;13.434;2023-03-01T05:33:13;21.17;;;12.60;;
13588;SDS011;6865;52.552;13.434;2023-03-01T05:35:40;20.37;;;12.23;;
13588;SDS011;6865;52.552;13.434;2023-03-01T05:38:09;19.60;;;12.73;;
13588;SDS011;6865;52.552;13.434;2023-03-01T05:40:40;19.17;;;12.33;;
13588;SDS011;6865;52.552;13.434;2023-03-01T05:43:07;22.60;;;12.60;;
13588;SDS011;6865;52.552;13.434;2023-03-01T05:45:35;24.43;;;12.80;;
13588;SDS011;6865;52.552;13.434;2023-03-01T05:48:03;30.80;;;18.67;;
13588;SDS011;6865;52.552;13.434;2023-03-01T05:50:35;72.20;;;38.77;;
13588;SDS011;6865;52.552;13.434;2023-03-01T05:53:04;49.47;;;26.00;;
13588;SDS011;6865;52.552;13.434;2023-03-01T05:55:38;43.47;;;23.77;;
13588;SDS011;6865;52.552;13.434;2023-03-01T05:58:06;39.37;;;23.40;;
13588;SDS011;6865;52.552;13.434;2023-03-01T06:00:35;28.57;;;17.43;;
13588;SDS011;6865;52.552;13.434;2023-03-01T06:03:02;24.77;;;14.37;;
13588;SDS011;6865;52.552;13.434;2023-03-01T06:05:29;22.80;;;13.73;;
13588;SDS011;6865;52.552;13.434;2023-03-01T06:07:59;21.57;;;13.63;;
13588;SDS011;6865;52.552;13.434;2023-03-01T06:10:27;26.77;;;14.17;;
13588;SDS011;6865;52.552;13.434;2023-03-01T06:12:54;20.97;;;13.37;;
13588;SDS011;6865;52.552;13.434;2023-03-01T06:15:21;27.40;;;13.73;;
13588;SDS011;6865;52.552;13.434;2023-03-01T06:17:48;23.43;;;12.73;;
13588;SDS011;6865;52.552;13.434;2023-03-01T06:20:19;22.33;;;12.80;;
13588;SDS011;6865;52.552;13.434;2023-03-01T06:22:48;23.30;;;14.57;;
13588;SDS011;6865;52.552;13.434;2023-03-01T06:25:20;21.03;;;13.17;;
13588;SDS011;6865;52.552;13.434;2023-03-01T06:27:47;22.27;;;13.97;;
13588;SDS011;6865;52.552;13.434;2023-03-01T06:30:15;25.80;;;13.87;;
13588;SDS011;6865;52.552;13.434;2023-03-01T06:32:43;22.77;;;13.70;;
13588;SDS011;6865;52.552;13.434;2023-03-01T06:35:11;21.60;;;13.07;;
13588;SDS011;6865;52.552;13.434;2023-03-01T06:37:40;22.73;;;13.63;;
13588;SDS011;6865;52.552;13.434;2023-03-01T06:40:07;23.90;;;14.50;;
13588;SDS011;6865;52.552;13.434;2023-03-01T06:42:35;21.73;;;13.87;;
13588;SDS011;6865;52.552;13.434;2023-03-01T06:45:02;25.73;;;14.13;;
13588;SDS011;6865;52.552;13.434;2023-03-01T06:47:30;22.27;;;13.93;;
13588;SDS011;6865;52.552;13.434;2023-03-01T06:49:56;20.83;;;13.93;;
13588;SDS011;6865;52.552;13.434;2023-03-01T06:52:23;25.53;;;14.57;;
13588;SDS011;6865;52.552;13.434;2023-03-01T06:54:50;22.83;;;14.60;;
13588;SDS011;6865;52.552;13.434;2023-03-01T06:57:16;23.87;;;14.63;;
13588;SDS011;6865;52.552;13.434;2023-03-01T06:59:43;24.30;;;14.37;;
13588;SDS011;6865;52.552;13.434;2023-03-01T07:02:13;24.37;;;14.50;;
13588;SDS011;6865;52.552;13.434;2023-03-01T07:04:41;23.17;;;14.63;;
13588;SDS011;6865;52.552;13.434;2023-03-01T07:07:08;21.53;;;14.33;;
13588;SDS011;6865;52.552;13.434;2023-03-01T07:09:34;25.97;;;15.93;;
13588;SDS011;6865;52.552;13.434;2023-03-01T07:12:01;22.77;;;14.27;;
13588;SDS011;6865;52.552;13.434;2023-03-01T07:14:28;22.97;;;14.37;;
13588;SDS011;6865;52.552;13.434;2023-03-01T07:16:55;23.13;;;14.50;;
13588;SDS011;6865;52.552;13.434;2023-03-01T07:19:22;23.90;;;14.50;;
13588;SDS011;6865;52.552;13.434;2023-03-01T07:21:49;23.73;;;14.50;;
13588;SDS011;6865;52.552;13.434;2023-03-01T07:24:15;23.20;;;14.83;;
13588;SDS011;6865;52.552;13.434;2023-03-01T07:26:42;23.50;;;14.03;;
13588;SDS011;6865;52.552;13.434;2023-03-01T07:29:09;21.07;;;13.97;;
13588;SDS011;6865;52.552;13.434;2023-03-01T07:31:36;24.13;;;14.90;;
13588;SDS011;6865;52.552;13.434;2023-03-01T07:34:03;24.70;;;14.90;;
13588;SDS011;6865;52.552;13.434;2023-03-01T07:36:30;22.60;;;14.77;;
13588;SDS011;6865;52.552;13.434;2023-03-01T07:38:57;29.90;;;16.90;;
13588;SDS011;6865;52.552;13.434;2023-03-01T07:41:24;25.67;;;14.43;;
13588;SDS011;6865;52.552;13.434;2023-03-01T07:43:51;24.17;;;14.17;;
13588;SDS011;6865;52.552;13.434;2023-03-01T07:46:17;23.57;;;14.33;;
13588;SDS011;6865;52.552;13.434;2023-03-01T07:48:45;21.20;;;13.57;;
13588;SDS011;6865;52.552;13.434;2023-03-01T07:51:12;23.80;;;13.60;;
13588;SDS011;6865;52.552;13.434;2023-03-01T07:53:39;24.37;;;14.60;;
13588;SDS011;6865;52.552;13.434;2023-03-01T07:56:07;21.43;;;13.80;;
13588;SDS011;6865;52.552;13.434;2023-03-01T07:58:38;21.83;;;13.30;;
13588;SDS011;6865;52.552;13.434;2023-03-01T08:01:09;20.60;;;13.07;;
13588;SDS011;6865;52.552;13.434;2023-03-01T08:03:41;20.07;;;13.67;;
13588;SDS011;6865;52.552;13.434;2023-03-01T08:06:11;14.73;;;10.27;;
13588;SDS011;6865;52.552;13.434;2023-03-01T08:08:39;16.40;;;9.47;;
13588;SDS011;6865;52.552;13.434;2023-03-01T08:11:06;13.93;;;9.87;;
13588;SDS011;6865;52.552;13.434;2023-03-01T08:13:35;15.53;;;9.57;;
13588;SDS011;6865;52.552;13.434;2023-03-01T08:16:04;15.87;;;9.27;;
13588;SDS011;6865;52.552;13.434;2023-03-01T08:18:33;12.23;;;7.67;;
13588;SDS011;6865;52.552;13.434;2023-03-01T08:21:03;12.77;;;8.30;;
13588;SDS011;6865;52.552;13.434;2023-03-01T08:23:31;12.13;;;6.90;;
13588;SDS011;6865;52.552;13.434;2023-03-01T08:26:14;10.60;;;6.93;;
13588;SDS011;6865;52.552;13.434;2023-03-01T08:28:43;14.07;;;9.97;;
13588;SDS011;6865;52.552;13.434;2023-03-01T08:31:29;17.80;;;10.27;;
13588;SDS011;6865;52.552;13.434;2023-03-01T08:33:59;10.33;;;6.50;;
13588;SDS011;6865;52.552;13.434;2023-03-01T08:36:28;8.30;;;5.10;;
13588;SDS011;6865;52.552;13.434;2023-03-01T08:38:57;7.73;;;5.30;;
13588;SDS011;6865;52.552;13.434;2023-03-01T08:41:24;9.27;;;5.23;;
13588;SDS011;6865;52.552;13.434;2023-03-01T08:43:51;8.77;;;5.10;;
13588;SDS011;6865;52.552;13.434;2023-03-01T08:46:19;8.63;;;5.73;;
13588;SDS011;6865;52.552;13.434;2023-03-01T08:48:45;9.73;;;6.83;;
13588;SDS011;6865;52.552;13.434;2023-03-01T08:51:13;10.17;;;6.33;;
13588;SDS011;6865;52.552;13.434;2023-03-01T08:53:42;8.70;;;6.33;;
13588;SDS011;6865;52.552;13.434;2023-03-01T08:56:09;8.90;;;5.60;;
13588;SDS011;6865;52.552;13.434;2023-03-01T08:58:37;10.57;;;6.07;;
13588;SDS011;6865;52.552;13.434;2023-03-01T09:01:11;9.80;;;5.00;;
13588;SDS011;6865;52.552;13.434;2023-03-01T09:03:40;6.93;;;4.87;;
13588;SDS011;6865;52.552;13.434;2023-03-01T09:06:07;7.27;;;4.83;;
13588;SDS011;6865;52.552;13.434;2023-03-01T09:08:35;8.13;;;4.67;;
13588;SDS011;6865;52.552;13.434;2023-03-01T09:11:03;8.60;;;4.80;;
13588;SDS011;6865;52.552;13.434;2023-03-01T09:13:31;8.40;;;5.17;;
13588;SDS011;6865;52.552;13.434;2023-03-01T09:15:58;8.57;;;4.60;;
13588;SDS011;6865;52.552;13.434;2023-03-01T09:18:26;8.80;;;5.00;;
13588;SDS011;6865;52.552;13.434;2023-03-01T09:21:00;8.60;;;4.70;;
13588;SDS011;6865;52.552;13.434;2023-03-01T09:24:04;7.83;;;4.77;;
13588;SDS011;6865;52.552;13.434;2023-03-01T09:26:30;9.13;;;5.03;;
13588;SDS011;6865;52.552;13.434;2023-03-01T09:28:58;7.03;;;4.23;;
13588;SDS011;6865;52.552;13.434;2023-03-01T09:31:24;5.93;;;4.00;;
13588;SDS011;6865;52.552;13.434;2023-03-01T09:33:52;6.80;;;4.50;;
13588;SDS011;6865;52.552;13.434;2023-03-01T09:36:21;7.90;;;4.77;;
13588;SDS011;6865;52.552;13.434;2023-03-01T09:38:49;10.03;;;4.80;;
13588;SDS011;6865;52.552;13.434;2023-03-01T09:41:23;7.83;;;5.00;;
13588;SDS011;6865;52.552;13.434;2023-03-01T09:44:20;11.30;;;5.13;;
13588;SDS011;6865;52.552;13.434;2023-03-01T09:46:53;6.80;;;4.30;;
13588;SDS011;6865;52.552;13.434;2023-03-01T09:49:21;7.93;;;3.93;;
13588;SDS011;6865;52.552;13.434;2023-03-01T09:51:59;8.03;;;3.80;;
13588;SDS011;6865;52.552;13.434;2023-03-01T09:54:26;6.77;;;3.57;;
13588;SDS011;6865;52.552;13.434;2023-03-01T09:57:06;7.13;;;3.53;;
13588;SDS011;6865;52.552;13.434;2023-03-01T09:59:37;8.17;;;3.43;;
13588;SDS011;6865;52.552;13.434;2023-03-01T10:02:45;3.77;;;2.67;;
13588;SDS011;6865;52.552;13.434;2023-03-01T10:05:49;3.87;;;2.27;;
13588;SDS011;6865;52.552;13.434;2023-03-01T10:08:26;4.83;;;2.47;;
13588;SDS011;6865;52.552;13.434;2023-03-01T10:11:03;4.70;;;2.47;;
13588;SDS011;6865;52.552;13.434;2023-03-01T10:13:45;4.50;;;2.90;;
13588;SDS011;6865;52.552;13.434;2023-03-01T10:16:16;4.87;;;3.30;;
13588;SDS011;6865;52.552;13.434;2023-03-01T10:18:59;7.10;;;3.80;;
13588;SDS011;6865;52.552;13.434;2023-03-01T10:21:29;4.93;;;3.00;;
13588;SDS011;6865;52.552;13.434;2023-03-01T10:24:08;6.20;;;3.10;;
13588;SDS011;6865;52.552;13.434;2023-03-01T10:26:41;3.90;;;2.70;;
13588;SDS011;6865;52.552;13.434;2023-03-01T10:29:23;3.50;;;2.60;;
13588;SDS011;6865;52.552;13.434;2023-03-01T10:31:58;4.67;;;2.90;;
13588;SDS011;6865;52.552;13.434;2023-03-01T10:34:28;3.33;;;2.40;;
13588;SDS011;6865;52.552;13.434;2023-03-01T10:36:58;3.47;;;2.30;;
13588;SDS011;6865;52.552;13.434;2023-03-01T10:39:34;4.17;;;2.33;;
13588;SDS011;6865;52.552;13.434;2023-03-01T10:42:02;8.10;;;2.50;;
13588;SDS011;6865;52.552;13.434;2023-03-01T10:44:41;8.50;;;3.30;;
13588;SDS011;6865;52.552;13.434;2023-03-01T10:49:57;4.33;;;2.67;;
13588;SDS011;6865;52.552;13.434;2023-03-01T10:52:31;4.97;;;2.63;;
13588;SDS011;6865;52.552;13.434;2023-03-01T10:55:04;5.60;;;2.40;;
13588;SDS011;6865;52.552;13.434;2023-03-01T10:58:05;3.40;;;2.10;;
13588;SDS011;6865;52.552;13.434;2023-03-01T11:00:45;8.40;;;2.60;;
13588;SDS011;6865;52.552;13.434;2023-03-01T11:03:26;4.47;;;2.47;;
13588;SDS011;6865;52.552;13.434;2023-03-01T11:08:41;4.13;;;2.57;;
13588;SDS011;6865;52.552;13.434;2023-03-01T11:11:14;4.33;;;2.43;;
13588;SDS011;6865;52.552;13.434;2023-03-01T11:13:59;6.67;;;2.37;;
13588;SDS011;6865;52.552;13.434;2023-03-01T11:17:00;6.40;;;2.40;;
13588;SDS011;6865;52.552;13.434;2023-03-01T11:19:29;3.80;;;2.40;;
13588;SDS011;6865;52.552;13.434;2023-03-01T11:22:04;4.83;;;2.50;;
13588;SDS011;6865;52.552;13.434;2023-03-01T11:24:39;4.97;;;2.67;;
13588;SDS011;6865;52.552;13.434;2023-03-01T11:27:15;3.67;;;2.33;;
13588;SDS011;6865;52.552;13.434;2023-03-01T11:29:46;8.47;;;3.13;;
13588;SDS011;6865;52.552;13.434;2023-03-01T11:32:24;4.57;;;2.37;;
13588;SDS011;6865;52.552;13.434;2023-03-01T11:34:57;4.83;;;2.60;;
13588;SDS011;6865;52.552;13.434;2023-03-01T11:37:37;6.23;;;2.43;;
13588;SDS011;6865;52.552;13.434;2023-03-01T11:40:12;4.00;;;2.63;;
13588;SDS011;6865;52.552;13.434;2023-03-01T11:42:48;4.60;;;2.40;;
13588;SDS011;6865;52.552;13.434;2023-03-01T11:45:39;4.83;;;2.27;;
13588;SDS011;6865;52.552;13.434;2023-03-01T11:48:17;4.20;;;2.60;;
13588;SDS011;6865;52.552;13.434;2023-03-01T11:51:22;4.80;;;2.30;;
13588;SDS011;6865;52.552;13.434;2023-03-01T11:54:25;4.83;;;2.40;;
13588;SDS011;6865;52.552;13.434;2023-03-01T11:57:01;4.33;;;2.20;;
13588;SDS011;6865;52.552;13.434;2023-03-01T12:05:28;4.23;;;2.50;;
13588;SDS011;6865;52.552;13.434;2023-03-01T12:08:21;3.90;;;2.50;;
13588;SDS011;6865;52.552;13.434;2023-03-01T12:19:31;6.67;;;2.80;;
13588;SDS011;6865;52.552;13.434;2023-03-01T12:30:48;4.73;;;2.40;;
13588;SDS011;6865;52.552;13.434;2023-03-01T12:36:22;3.90;;;2.50;;
13588;SDS011;6865;52.552;13.434;2023-03-01T12:39:06;4.47;;;2.30;;
13588;SDS011;6865;52.552;13.434;2023-03-01T12:42:10;3.23;;;2.30;;
13588;SDS011;6865;52.552;13.434;2023-03-01T12:44:53;3.43;;;2.10;;
13588;SDS011;6865;52.552;13.434;2023-03-01T12:47:53;2.73;;;2.17;;
13588;SDS011;6865;52.552;13.434;2023-03-01T12:50:40;3.93;;;2.50;;
13588;SDS011;6865;52.552;13.434;2023-03-01T12:53:16;4.27;;;2.13;;
13588;SDS011;6865;52.552;13.434;2023-03-01T12:55:53;3.00;;;2.07;;
13588;SDS011;6865;52.552;13.434;2023-03-01T12:58:35;3.93;;;2.00;;
13588;SDS011;6865;52.552;13.434;2023-03-01T13:01:35;4.00;;;2.50;;
13588;SDS011;6865;52.552;13.434;2023-03-01T13:04:24;4.27;;;2.47;;
13588;SDS011;6865;52.552;13.434;2023-03-01T13:09:25;3.97;;;2.17;;
13588;SDS011;6865;52.552;13.434;2023-03-01T13:12:04;3.40;;;2.30;;
13588;SDS011;6865;52.552;13.434;2023-03-01T13:17:48;4.83;;;2.30;;
13588;SDS011;6865;52.552;13.434;2023-03-01T13:20:18;2.13;;;1.93;;
13588;SDS011;6865;52.552;13.434;2023-03-01T13:23:00;2.67;;;1.97;;
13588;SDS011;6865;52.552;13.434;2023-03-01T13:25:59;3.33;;;1.97;;
13588;SDS011;6865;52.552;13.434;2023-03-01T13:30:58;8.10;;;2.37;;
13588;SDS011;6865;52.552;13.434;2023-03-01T13:35:55;6.13;;;2.90;;
13588;SDS011;6865;52.552;13.434;2023-03-01T13:41:15;3.67;;;2.30;;
13588;SDS011;6865;52.552;13.434;2023-03-01T13:43:44;4.93;;;2.23;;
13588;SDS011;6865;52.552;13.434;2023-03-01T13:46:16;4.63;;;2.30;;
13588;SDS011;6865;52.552;13.434;2023-03-01T13:48:50;4.13;;;2.30;;
13588;SDS011;6865;52.552;13.434;2023-03-01T13:51:24;3.93;;;2.30;;
13588;SDS011;6865;52.552;13.434;2023-03-01T13:53:53;6.53;;;2.50;;
13588;SDS011;6865;52.552;13.434;2023-03-01T13:56:26;4.27;;;2.07;;
13588;SDS011;6865;52.552;13.434;2023-03-01T13:59:00;5.50;;;2.30;;
13588;SDS011;6865;52.552;13.434;2023-03-01T14:01:32;3.90;;;2.50;;
13588;SDS011;6865;52.552;13.434;2023-03-01T14:04:02;4.00;;;2.40;;
13588;SDS011;6865;52.552;13.434;2023-03-01T14:06:31;4.17;;;2.30;;
13588;SDS011;6865;52.552;13.434;2023-03-01T14:09:01;3.87;;;2.20;;
13588;SDS011;6865;52.552;13.434;2023-03-01T14:17:59;3.90;;;2.50;;
13588;SDS011;6865;52.552;13.434;2023-03-01T14:20:25;3.30;;;2.30;;
13588;SDS011;6865;52.552;13.434;2023-03-01T14:23:01;5.17;;;2.73;;
13588;SDS011;6865;52.552;13.434;2023-03-01T14:25:35;3.40;;;2.37;;
13588;SDS011;6865;52.552;13.434;2023-03-01T14:30:53;3.40;;;2.42;;
13588;SDS011;6865;52.552;13.434;2023-03-01T14:33:26;3.93;;;2.50;;
13588;SDS011;6865;52.552;13.434;2023-03-01T14:35:59;2.80;;;2.27;;
13588;SDS011;6865;52.552;13.434;2023-03-01T14:38:32;5.53;;;2.40;;
13588;SDS011;6865;52.552;13.434;2023-03-01T14:41:15;5.53;;;2.37;;
13588;SDS011;6865;52.552;13.434;2023-03-01T14:43:54;4.03;;;2.13;;
13588;SDS011;6865;52.552;13.434;2023-03-01T14:46:41;3.77;;;2.50;;
13588;SDS011;6865;52.552;13.434;2023-03-01T14:49:14;4.10;;;2.47;;
13588;SDS011;6865;52.552;13.434;2023-03-01T14:51:46;5.90;;;2.40;;
13588;SDS011;6865;52.552;13.434;2023-03-01T14:54:29;3.63;;;2.40;;
13588;SDS011;6865;52.552;13.434;2023-03-01T14:57:14;4.03;;;2.30;;
13588;SDS011;6865;52.552;13.434;2023-03-01T14:59:43;4.30;;;2.20;;
13588;SDS011;6865;52.552;13.434;2023-03-01T15:02:12;4.80;;;2.10;;
13588;SDS011;6865;52.552;13.434;2023-03-01T15:04:46;3.37;;;2.20;;
13588;SDS011;6865;52.552;13.434;2023-03-01T15:07:15;3.17;;;1.97;;
13588;SDS011;6865;52.552;13.434;2023-03-01T15:09:42;5.40;;;2.20;;
13588;SDS011;6865;52.552;13.434;2023-03-01T15:14:55;4.00;;;2.30;;
13588;SDS011;6865;52.552;13.434;2023-03-01T15:17:33;3.93;;;2.60;;
13588;SDS011;6865;52.552;13.434;2023-03-01T15:20:03;4.43;;;2.60;;
13588;SDS011;6865;52.552;13.434;2023-03-01T15:22:32;3.93;;;2.70;;
13588;SDS011;6865;52.552;13.434;2023-03-01T15:25:01;4.47;;;2.70;;
13588;SDS011;6865;52.552;13.434;2023-03-01T15:27:27;5.63;;;2.83;;
13588;SDS011;6865;52.552;13.434;2023-03-01T15:29:58;5.80;;;2.50;;
13588;SDS011;6865;52.552;13.434;2023-03-01T15:32:35;4.10;;;2.50;;
13588;SDS011;6865;52.552;13.434;2023-03-01T15:38:23;4.53;;;2.57;;
13588;SDS011;6865;52.552;13.434;2023-03-01T15:41:05;4.53;;;2.57;;
13588;SDS011;6865;52.552;13.434;2023-03-01T15:43:48;3.67;;;2.50;;
13588;SDS011;6865;52.552;13.434;2023-03-01T15:46:23;4.33;;;2.70;;
13588;SDS011;6865;52.552;13.434;2023-03-01T15:48:56;3.57;;;2.50;;
13588;SDS011;6865;52.552;13.434;2023-03-01T15:51:44;4.13;;;2.53;;
13588;SDS011;6865;52.552;13.434;2023-03-01T15:54:14;4.13;;;2.50;;
13588;SDS011;6865;52.552;13.434;2023-03-01T15:56:44;4.93;;;2.50;;
13588;SDS011;6865;52.552;13.434;2023-03-01T15:59:12;4.47;;;2.10;;
13588;SDS011;6865;52.552;13.434;2023-03-01T16:01:42;2.63;;;2.10;;
13588;SDS011;6865;52.552;13.434;2023-03-01T16:04:16;4.30;;;2.57;;